Dades meteomassalio
Diari Summary for Febrer 7, 2017 Units:  Metric    English   Both
« Previous Day
Next Day »
Diari Semanal Mensual Anual Personalitzat
  Maxima: Minima: Mijana:
Temperatura: -17.8 °C -13.2 °C -10.9 °C
Rosada: -17.8 °C -14.8 °C -13.6 °C
Humitat: Humidity % 63 % 72 %
Velocitat del vent: 0 km/h 0 km/h 42.3 km/h
Racha vent: 0 km/h - -
Vent:- - WNW
Pressio: 0 hPa 34486.4 hPa -
Pluja: 58.42 mm    
Historical Graphs
 
 
Tabular Data for Febrer 7, 2017
Time Temperature Dew Point Pressure Wind Wind Speed Wind Gust Humidity Rainfall Rate (Hourly) solar Conditions
-17.8 °C -17.8 °C 0 hPa Calm     Humidity % 0 mm SolarRadiationWatts/m^2 W/m2 Conditions
00:00 -10.4 °C -13.7 °C 34601.5 hPa WNW 35.7 km/h 35.7 km/h 67 % 0 mm 0.0 W/m2 CLR
00:05 -10.3 °C -13.7 °C 34601.5 hPa WNW 38.8 km/h 38.8 km/h 67 % 0 mm 0.0 W/m2 CLR
00:10 -10.4 °C -13.7 °C 34601.5 hPa WNW 50.7 km/h 50.7 km/h 67 % 0 mm 0.0 W/m2 CLR
00:15 -10.4 °C -13.7 °C 34591.4 hPa WNW 47.6 km/h 47.6 km/h 67 % 0 mm 0.0 W/m2 CLR
00:20 -10.4 °C -13.6 °C 34601.5 hPa WNW 68.6 km/h 68.6 km/h 68 % 0 mm 0.0 W/m2 CLR
00:25 -10.4 °C -13.7 °C 34601.5 hPa WNW 50.7 km/h 50.7 km/h 67 % 0 mm 0.0 W/m2 CLR
00:30 -10.4 °C -13.7 °C 34591.4 hPa WNW 50.7 km/h 50.7 km/h 68 % 0 mm 0.0 W/m2 CLR
00:35 -10.5 °C -13.7 °C 34591.4 hPa WNW 53.6 km/h 53.6 km/h 68 % 0 mm 0.0 W/m2 CLR
00:40 -10.4 °C -13.7 °C 34591.4 hPa WNW 59.5 km/h 59.5 km/h 68 % 0 mm 0.0 W/m2 CLR
00:45 -10.5 °C -13.7 °C 34591.4 hPa WNW 50.7 km/h 50.7 km/h 68 % 0 mm 0.0 W/m2 CLR
00:50 -10.4 °C -13.8 °C 34591.4 hPa WNW 65.5 km/h 65.5 km/h 67 % 0 mm 0.0 W/m2 CLR
00:55 -10.5 °C -13.7 °C 34591.4 hPa WNW 56.6 km/h 56.6 km/h 68 % 0 mm 0.0 W/m2 CLR
01:00 -10.5 °C -13.8 °C 34591.4 hPa WNW 50.7 km/h 50.7 km/h 67 % 0 mm 0.0 W/m2 CLR
01:05 -10.6 °C -13.8 °C 34591.4 hPa WNW 47.6 km/h 47.6 km/h 68 % 0 mm 0.0 W/m2 CLR
01:10 -10.6 °C -13.8 °C 34591.4 hPa WNW 50.7 km/h 50.7 km/h 68 % 0 mm 0.0 W/m2 CLR
01:15 -10.7 °C -13.8 °C 34591.4 hPa WNW 47.6 km/h 47.6 km/h 68 % 0 mm 0.0 W/m2 CLR
01:20 -10.7 °C -13.8 °C 34591.4 hPa WNW 51.8 km/h 51.8 km/h 68 % 0 mm 0.0 W/m2 CLR
01:25 -10.6 °C -13.9 °C 34591.4 hPa WNW 53.6 km/h 53.6 km/h 67 % 0 mm 0.0 W/m2 CLR
01:30 -10.6 °C -13.9 °C 34591.4 hPa WNW 53.6 km/h 53.6 km/h 67 % 0 mm 0.0 W/m2 CLR
01:35 -10.7 °C -14 °C 34591.4 hPa WNW 50.7 km/h 50.7 km/h 67 % 0 mm 0.0 W/m2 CLR
01:40 -10.8 °C -14 °C 34591.4 hPa WNW 50.7 km/h 50.7 km/h 68 % 0 mm 0.0 W/m2 CLR
01:45 -10.8 °C -14 °C 34591.4 hPa WNW 54.4 km/h 54.4 km/h 68 % 0 mm 0.0 W/m2 CLR
01:50 -10.7 °C -14.1 °C 34591.4 hPa WNW 50.7 km/h 50.7 km/h 67 % 0 mm 0.0 W/m2 CLR
01:55 -10.7 °C -14 °C 34591.4 hPa WNW 50.7 km/h 50.7 km/h 67 % 0 mm 0.0 W/m2 CLR
02:00 -10.7 °C -14 °C 34591.4 hPa WNW 44.7 km/h 44.7 km/h 67 % 0 mm 0.0 W/m2 CLR
02:05 -10.7 °C -14.1 °C 34591.4 hPa WNW 44.7 km/h 44.7 km/h 67 % 0 mm 0.0 W/m2 CLR
02:10 -10.7 °C -14.1 °C 34591.4 hPa WNW 50.7 km/h 50.7 km/h 67 % 0 mm 0.0 W/m2 CLR
02:15 -10.7 °C -14.1 °C 34591.4 hPa WNW 59.5 km/h 59.5 km/h 66 % 0 mm 0.0 W/m2 CLR
02:20 -10.7 °C -14.1 °C 34591.4 hPa WNW 68.6 km/h 68.6 km/h 66 % 0 mm 0.0 W/m2 CLR
02:25 -10.7 °C -14.2 °C 34591.4 hPa WNW 53.6 km/h 53.6 km/h 65 % 0 mm 0.0 W/m2 CLR
02:30 -10.7 °C -14.1 °C 34591.4 hPa WNW 62.6 km/h 62.6 km/h 66 % 0 mm 0.0 W/m2 CLR
02:35 -10.7 °C -14.2 °C 34591.4 hPa WNW 57 km/h 57 km/h 66 % 0 mm 0.0 W/m2 CLR
02:40 -10.7 °C -14.2 °C 34591.4 hPa WNW 47.6 km/h 47.6 km/h 66 % 0 mm 0.0 W/m2 CLR
02:45 -10.7 °C -14.2 °C 34591.4 hPa WNW 56.6 km/h 56.6 km/h 65 % 0 mm 0.0 W/m2 CLR
02:50 -10.6 °C -14.3 °C 34591.4 hPa WNW 56.6 km/h 56.6 km/h 64 % 0 mm 0.0 W/m2 CLR
02:55 -10.7 °C -14.3 °C 34591.4 hPa WNW 47.6 km/h 47.6 km/h 65 % 0 mm 0.0 W/m2 CLR
03:00 -10.7 °C -14.3 °C 34591.4 hPa WNW 41.7 km/h 41.7 km/h 65 % 0 mm 0.0 W/m2 CLR
03:05 -10.8 °C -14.3 °C 34591.4 hPa WNW 49.2 km/h 49.2 km/h 65 % 0 mm 0.0 W/m2 CLR
03:10 -10.8 °C -14.2 °C 34591.4 hPa NW 44.7 km/h 44.7 km/h 66 % 0 mm 0.0 W/m2 CLR
03:15 -10.8 °C -14.3 °C 34591.4 hPa WNW 25.9 km/h 25.9 km/h 65 % 0 mm 0.0 W/m2 CLR
03:21 -10.8 °C -14.4 °C 34591.4 hPa WNW 31.1 km/h 31.1 km/h 65 % 0 mm 0.0 W/m2 CLR
03:26 -10.9 °C -14.3 °C 34591.4 hPa WNW 35.7 km/h 35.7 km/h 66 % 0 mm 0.0 W/m2 CLR
03:31 -11 °C -14.4 °C 34577.8 hPa WNW 38.8 km/h 38.8 km/h 66 % 0 mm 0.0 W/m2 CLR
03:36 -11.1 °C -14.5 °C 34577.8 hPa WNW 44.7 km/h 44.7 km/h 66 % 0 mm 0.0 W/m2 CLR
03:41 -11 °C -14.4 °C 34567.7 hPa WNW 50.7 km/h 50.7 km/h 66 % 0 mm 0.0 W/m2 CLR
03:46 -11 °C -14.4 °C 34567.7 hPa WNW 46.7 km/h 46.7 km/h 66 % 0 mm 0.0 W/m2 CLR
03:51 -11 °C -14.4 °C 34567.7 hPa WNW 44.7 km/h 44.7 km/h 66 % 0 mm 0.0 W/m2 CLR
03:56 -10.9 °C -14.5 °C 34567.7 hPa WNW 50.7 km/h 50.7 km/h 65 % 0 mm 0.0 W/m2 CLR
04:01 -10.9 °C -14.5 °C 34567.7 hPa WNW 38.8 km/h 38.8 km/h 65 % 0 mm 0.0 W/m2 CLR
04:06 -10.9 °C -14.5 °C 34567.7 hPa West 32.8 km/h 32.8 km/h 65 % 0 mm 0.0 W/m2 CLR
04:11 -10.9 °C -14.5 °C 34567.7 hPa West 38.8 km/h 38.8 km/h 65 % 0 mm 0.0 W/m2 CLR
04:16 -10.9 °C -14.5 °C 34567.7 hPa West 32.8 km/h 32.8 km/h 65 % 0 mm 0.0 W/m2 CLR
04:21 -11 °C -14.6 °C 34567.7 hPa West 33.6 km/h 33.6 km/h 65 % 0 mm 0.0 W/m2 CLR
04:26 -11 °C -14.6 °C 34567.7 hPa West 26.9 km/h 26.9 km/h 65 % 0 mm 0.0 W/m2 CLR
04:31 -11 °C -14.6 °C 34577.8 hPa Calm     65 % 0 mm 0.0 W/m2 CLR
04:36 -11.1 °C -14.6 °C 34577.8 hPa Calm     66 % 0 mm 0.0 W/m2 CLR
04:41 -11.2 °C -14.6 °C 34577.8 hPa West 6 km/h 6 km/h 66 % 0 mm 0.0 W/m2 CLR
04:46 -11.2 °C -14.6 °C 34577.8 hPa Calm     67 % 0 mm 0.0 W/m2 CLR
04:51 -11.3 °C -14.6 °C 34567.7 hPa Calm     67 % 0 mm 0.0 W/m2 CLR
04:56 -11.3 °C -14.6 °C 34567.7 hPa SW 3.1 km/h 3.1 km/h 67 % 0 mm 0.0 W/m2 CLR
05:01 -11.3 °C -14.7 °C 34567.7 hPa Calm     67 % 0 mm 0.0 W/m2 CLR
05:06 -11.5 °C -14.7 °C 34577.8 hPa Calm     68 % 0 mm 0.0 W/m2 CLR
05:11 -11.6 °C -14.6 °C 34577.8 hPa Calm     69 % 0 mm 0.0 W/m2 CLR
05:16 -11.6 °C -14.7 °C 34577.8 hPa Calm     69 % 0 mm 0.0 W/m2 CLR
05:21 -11.7 °C -14.6 °C 34577.8 hPa Calm     70 % 0 mm 0.0 W/m2 CLR
05:26 -11.8 °C -14.7 °C 34577.8 hPa Calm     70 % 0 mm 0.0 W/m2 CLR
05:31 -11.8 °C -14.7 °C 34577.8 hPa Calm     70 % 0 mm 0.0 W/m2 CLR
05:36 -11.7 °C -14.7 °C 34577.8 hPa Calm     70 % 0 mm 0.0 W/m2 CLR
05:41 -11.7 °C -14.7 °C 34577.8 hPa Calm     70 % 0 mm 0.0 W/m2 CLR
05:46 -11.7 °C -14.7 °C 34577.8 hPa Calm     70 % 0 mm 0.0 W/m2 CLR
05:51 -11.8 °C -14.7 °C 34567.7 hPa Calm     70 % 0 mm 0.0 W/m2 CLR
05:56 -11.8 °C -14.7 °C 34577.8 hPa WNW 6 km/h   70 % 0 mm 0.0 W/m2 CLR
05:57 -11.8 °C -14.7 °C 34567.7 hPa Calm     70 % 0 mm 0.0 W/m2 CLR
06:02 -11.8 °C -14.6 °C 34577.8 hPa WNW 5.1 km/h 5.1 km/h 71 % 0 mm 0.0 W/m2 CLR
06:07 -11.8 °C -14.6 °C 34577.8 hPa NW 6 km/h 6 km/h 71 % 0 mm 0.0 W/m2 CLR
06:12 -11.8 °C -14.6 °C 34567.7 hPa WNW 15.6 km/h 15.6 km/h 72 % 0 mm 0.0 W/m2 CLR
06:17 -11.8 °C -14.5 °C 34567.7 hPa West 11.9 km/h 11.9 km/h 72 % 0 mm 0.0 W/m2 CLR
06:22 -11.8 °C -14.6 °C 34567.7 hPa West 15 km/h 15 km/h 71 % 0 mm 0.0 W/m2 CLR
06:27 -11.8 °C -14.6 °C 34567.7 hPa West 15.6 km/h 15.6 km/h 71 % 0 mm 0.0 W/m2 CLR
06:32 -11.8 °C -14.4 °C 34567.7 hPa West 15 km/h 15 km/h 72 % 0 mm 0.0 W/m2 CLR
06:37 -11.8 °C -14.4 °C 34567.7 hPa WNW 17.9 km/h 17.9 km/h 72 % 0 mm 0.0 W/m2 CLR
06:38 -11.8 °C -14.4 °C 34567.7 hPa WNW 17.9 km/h 17.9 km/h 72 % 0 mm 0.0 W/m2 CLR
06:43 -11.8 °C -14.4 °C 34567.7 hPa WNW 26.9 km/h 26.9 km/h 72 % 0 mm 0.0 W/m2 CLR
06:48 -11.7 °C -14.4 °C 34567.7 hPa WNW 29.8 km/h 29.8 km/h 72 % 0 mm 0.0 W/m2 CLR
06:53 -11.7 °C -14.4 °C 34567.7 hPa WNW 29.8 km/h 29.8 km/h 72 % 0 mm 0.0 W/m2 CLR
06:58 -11.6 °C -14.3 °C 34567.7 hPa WNW 26.9 km/h 26.9 km/h 72 % 0 mm 0.0 W/m2 CLR
07:03 -11.6 °C -14.3 °C 34567.7 hPa WNW 29.8 km/h 29.8 km/h 72 % 0 mm 0.0 W/m2 CLR
07:08 -11.5 °C -14.3 °C 34567.7 hPa WNW 33.6 km/h 33.6 km/h 71 % 0 mm 0.0 W/m2 CLR
07:13 -11.4 °C -14.2 °C 34567.7 hPa WNW 38.8 km/h 38.8 km/h 71 % 0 mm 0.0 W/m2 CLR
07:18 -11.3 °C -14.2 °C 34567.7 hPa WNW 41.7 km/h 41.7 km/h 71 % 0 mm 0.0 W/m2 CLR
07:23 -11.3 °C -14.1 °C 34567.7 hPa WNW 38.8 km/h 38.8 km/h 71 % 0 mm 0.0 W/m2 CLR
07:28 -11.3 °C -14.1 °C 34567.7 hPa WNW 53.6 km/h 53.6 km/h 71 % 0 mm 0.0 W/m2 CLR
07:33 -11.2 °C -14.1 °C 34567.7 hPa WNW 50.7 km/h 50.7 km/h 71 % 0 mm 0.0 W/m2 CLR
07:38 -11.2 °C -14 °C 34567.7 hPa WNW 38.8 km/h 38.8 km/h 71 % 0 mm 0.0 W/m2 CLR
07:43 -11.2 °C -14 °C 34577.8 hPa WNW 35.7 km/h 35.7 km/h 71 % 0 mm 0.0 W/m2 CLR
07:48 -11.2 °C -13.9 °C 34577.8 hPa WNW 41.4 km/h 41.4 km/h 72 % 0 mm 0.0 W/m2 CLR
07:53 -11.2 °C -13.9 °C 34577.8 hPa WNW 49.2 km/h 49.2 km/h 72 % 0 mm 0.0 W/m2 CLR
07:58 -11.2 °C -13.9 °C 34577.8 hPa WNW 50.7 km/h 50.7 km/h 72 % 0 mm 0.0 W/m2 CLR
08:03 -11.2 °C -13.8 °C 34577.8 hPa WNW 46.7 km/h 46.7 km/h 73 % 0 mm 0.0 W/m2 OVC
08:08 -11.2 °C -13.8 °C 34577.8 hPa WNW 54.4 km/h 54.4 km/h 73 % 0 mm 0.0 W/m2 OVC
08:13 -11.2 °C -13.8 °C 34577.8 hPa WNW 51.8 km/h 51.8 km/h 73 % 0 mm 7.0 W/m2 BKN
08:18 -11.2 °C -13.8 °C 34577.8 hPa WNW 41.7 km/h 41.7 km/h 73 % 0 mm 14.0 W/m2 BKN
08:23 -11.3 °C -13.8 °C 34577.8 hPa WNW 35.7 km/h 35.7 km/h 73 % 0 mm 14.0 W/m2 BKN
08:28 -11.3 °C -13.8 °C 34577.8 hPa WNW 38.8 km/h 38.8 km/h 73 % 0 mm 14.0 W/m2 BKN
08:33 -11.3 °C -13.8 °C 34577.8 hPa WNW 35.7 km/h 35.7 km/h 74 % 0 mm 16.0 W/m2 BKN
08:38 -11.4 °C -13.9 °C 34577.8 hPa WNW 38.8 km/h 38.8 km/h 74 % 0 mm 16.0 W/m2 BKN
08:43 -11.5 °C -13.9 °C 34577.8 hPa WNW 38.8 km/h 38.8 km/h 75 % 0 mm 16.0 W/m2 BKN
08:48 -11.6 °C -13.8 °C 34577.8 hPa WNW 35.7 km/h 35.7 km/h 76 % 0 mm 16.0 W/m2 BKN
08:53 -11.6 °C -13.8 °C 34567.7 hPa WNW 47.6 km/h 47.6 km/h 76 % 0 mm 16.0 W/m2 BKN
08:58 -11.6 °C -13.8 °C 34567.7 hPa WNW 38.8 km/h 38.8 km/h 76 % 0 mm 18.0 W/m2 BKN
09:03 -11.6 °C -13.8 °C 34567.7 hPa WNW 38.8 km/h 38.8 km/h 76 % 0 mm 19.0 W/m2 BKN
09:08 -11.6 °C -13.8 °C 34577.8 hPa WNW 32.8 km/h 32.8 km/h 76 % 0 mm 21.0 W/m2 BKN
09:13 -11.6 °C -13.8 °C 34577.8 hPa WNW 47.6 km/h 47.6 km/h 76 % 0 mm 23.0 W/m2 BKN
09:18 -11.5 °C -13.7 °C 34577.8 hPa WNW 41.7 km/h 41.7 km/h 76 % 0 mm 25.0 W/m2 BKN
09:23 -11.4 °C -13.7 °C 34567.7 hPa WNW 50.7 km/h 50.7 km/h 76 % 0 mm 26.0 W/m2 BKN
09:28 -11.3 °C -13.6 °C 34567.7 hPa WNW 50.7 km/h 50.7 km/h 76 % 0 mm 30.0 W/m2 BKN
09:33 -11.2 °C -13.5 °C 34577.8 hPa WNW 50.7 km/h 50.7 km/h 76 % 0 mm 33.0 W/m2 BKN
09:38 -11.1 °C -13.4 °C 34577.8 hPa WNW 62.6 km/h 62.6 km/h 75 % 0 mm 199.0 W/m2 SCT
09:43 -10.8 °C -13.3 °C 34577.8 hPa WNW 44.7 km/h 44.7 km/h 74 % 0 mm 229.0 W/m2 CLR
09:48 -10.7 °C -13.3 °C 34567.7 hPa WNW 56.6 km/h 56.6 km/h 73 % 0 mm 76.0 W/m2 CLR
09:53 -10.8 °C -13.3 °C 34567.7 hPa WNW 53.6 km/h 53.6 km/h 74 % 0 mm 58.0 W/m2 FEW
09:58 -10.8 °C -13.3 °C 34577.8 hPa WNW 44.7 km/h 44.7 km/h 74 % 0 mm 63.0 W/m2 SCT
10:03 -10.8 °C -13.3 °C 34577.8 hPa WNW 47.6 km/h 47.6 km/h 74 % 0 mm 258.0 W/m2 FEW
10:08 -10.6 °C -13.1 °C 34577.8 hPa WNW 44.7 km/h 44.7 km/h 74 % 0 mm 144.0 W/m2 CLR
10:13 -10.5 °C -13.1 °C 34577.8 hPa WNW 38.8 km/h 38.8 km/h 73 % 0 mm 95.0 W/m2 CLR
10:18 -10.5 °C -13.2 °C 34577.8 hPa WNW 35.7 km/h 35.7 km/h 73 % 0 mm 163.0 W/m2 CLR
10:23 -10.4 °C -13 °C 34577.8 hPa WNW 50.7 km/h 50.7 km/h 73 % 0 mm 271.0 W/m2 CLR
10:28 -10.2 °C -12.9 °C 34577.8 hPa WNW 35.7 km/h 35.7 km/h 72 % 0 mm 348.0 W/m2 CLR
10:33 -10.1 °C -12.9 °C 34577.8 hPa WNW 35.7 km/h 35.7 km/h 71 % 0 mm 316.0 W/m2 CLR
10:38 -9.9 °C -12.8 °C 34567.7 hPa WNW 38.8 km/h 38.8 km/h 71 % 0 mm 302.0 W/m2 CLR
10:43 -9.8 °C -12.9 °C 34567.7 hPa WNW 44.7 km/h 44.7 km/h 69 % 0 mm 329.0 W/m2 CLR
10:48 -9.8 °C -12.9 °C 34567.7 hPa WNW 50.7 km/h 50.7 km/h 69 % 0 mm 292.0 W/m2 CLR
10:53 -9.8 °C -13.1 °C 34554.1 hPa WNW 50.7 km/h 50.7 km/h 68 % 0 mm 299.0 W/m2 CLR
10:58 -9.8 °C -12.9 °C 34554.1 hPa WNW 68.6 km/h 68.6 km/h 69 % 0 mm 271.0 W/m2 CLR
11:03 -9.8 °C -12.9 °C 34554.1 hPa WNW 35.7 km/h 35.7 km/h 69 % 0 mm 297.0 W/m2 CLR
11:08 -9.7 °C -12.9 °C 34554.1 hPa WNW 68.6 km/h 68.6 km/h 68 % 0 mm 408.0 W/m2 CLR
11:13 -9.6 °C -12.8 °C 34554.1 hPa WNW 51.8 km/h 51.8 km/h 68 % 0 mm 404.0 W/m2 CLR
11:18 -9.5 °C -12.7 °C 34544 hPa WNW 51.8 km/h 51.8 km/h 69 % 0 mm 408.0 W/m2 CLR
11:23 -9.5 °C -12.7 °C 34544 hPa NW 75.2 km/h 75.2 km/h 68 % 0 mm 462.0 W/m2 CLR
11:28 -9.4 °C -12.8 °C 34544 hPa NW 68.6 km/h 68.6 km/h 67 % 0 mm 457.0 W/m2 CLR
11:33 -9.3 °C -12.9 °C 34544 hPa NW 80.5 km/h 80.5 km/h 66 % 0 mm 443.0 W/m2 CLR
11:38 -9.3 °C -12.6 °C 34544 hPa NW 49.2 km/h 49.2 km/h 68 % 0 mm 431.0 W/m2 CLR
11:43 -9.3 °C -12.7 °C 34544 hPa NW 68.6 km/h 68.6 km/h 67 % 0 mm 278.0 W/m2 CLR
11:48 -9.3 °C -12.8 °C 34544 hPa NW 68.6 km/h 68.6 km/h 66 % 0 mm 496.0 W/m2 CLR
11:53 -9.2 °C -12.7 °C 34544 hPa NW 62.6 km/h 62.6 km/h 66 % 0 mm 329.0 W/m2 CLR
11:58 -9.1 °C -12.6 °C 34544 hPa NW 80.5 km/h 80.5 km/h 66 % 0 mm 559.0 W/m2 CLR
12:03 -9 °C -12.7 °C 34544 hPa NW 65.5 km/h 65.5 km/h 65 % 0 mm 570.0 W/m2 CLR
12:08 -8.9 °C -12.6 °C 34544 hPa NW 68.6 km/h 68.6 km/h 65 % 0 mm 575.0 W/m2 CLR
12:13 -8.9 °C -12.6 °C 34544 hPa WNW 68.6 km/h 68.6 km/h 65 % 0 mm 501.0 W/m2 CLR
12:18 -9 °C -12.6 °C 34544 hPa NW 71.5 km/h 71.5 km/h 65 % 0 mm 513.0 W/m2 CLR
12:23 -8.9 °C -12.6 °C 34544 hPa NW 74.5 km/h 74.5 km/h 65 % 0 mm 545.0 W/m2 CLR
12:28 -8.9 °C -12.6 °C 34544 hPa NW 68.6 km/h 68.6 km/h 65 % 0 mm 545.0 W/m2 CLR
12:33 -8.9 °C -12.6 °C 34544 hPa NW 71.5 km/h 71.5 km/h 65 % 0 mm 555.0 W/m2 CLR
12:38 -8.9 °C -12.6 °C 34544 hPa NW 80.5 km/h 80.5 km/h 65 % 0 mm 557.0 W/m2 CLR
12:43 -8.9 °C -12.4 °C 34544 hPa NW 65.5 km/h 65.5 km/h 66 % 0 mm 578.0 W/m2 CLR
12:49 -8.8 °C -12.7 °C 34544 hPa NW 83.4 km/h 83.4 km/h 64 % 0 mm 615.0 W/m2 CLR
12:54 -8.9 °C -12.7 °C 34544 hPa NW 74.5 km/h 74.5 km/h 64 % 0 mm 584.0 W/m2 CLR
12:59 -8.8 °C -12.7 °C 34544 hPa NW 71.5 km/h 71.5 km/h 64 % 0 mm 554.0 W/m2 CLR
13:04 -8.8 °C -12.7 °C 34544 hPa NW 74.5 km/h 74.5 km/h 63 % 0 mm 580.0 W/m2 CLR
13:09 -8.8 °C -12.6 °C 34544 hPa NW 65.5 km/h 65.5 km/h 64 % 0 mm 587.0 W/m2 CLR
13:14 -8.7 °C -12.6 °C 34544 hPa NW 74.5 km/h 74.5 km/h 63 % 0 mm 626.0 W/m2 CLR
13:19 -8.8 °C -12.7 °C 34544 hPa NW 72.6 km/h 72.6 km/h 63 % 0 mm 494.0 W/m2 CLR
13:24 -8.8 °C -12.7 °C 34533.8 hPa NW 62.6 km/h 62.6 km/h 64 % 0 mm 515.0 W/m2 CLR
13:29 -8.8 °C -12.7 °C 34533.8 hPa NW 68.6 km/h 68.6 km/h 64 % 0 mm 568.0 W/m2 CLR
13:34 -8.6 °C -12.4 °C 34533.8 hPa NW 50.7 km/h 50.7 km/h 64 % 0 mm 504.0 W/m2 CLR
13:39 -8.7 °C -12.4 °C 34533.8 hPa NW 53.6 km/h 53.6 km/h 64 % 0 mm 585.0 W/m2 CLR
13:44 -8.7 °C -12.4 °C 34520.3 hPa NW 62.6 km/h 62.6 km/h 64 % 0 mm 568.0 W/m2 CLR
13:49 -8.7 °C -12.4 °C 34520.3 hPa NW 68.6 km/h 68.6 km/h 64 % 0 mm 575.0 W/m2 CLR
13:54 -8.9 °C -12.8 °C 34520.3 hPa NW 56.6 km/h 56.6 km/h 63 % 0 mm 111.0 W/m2 CLR
13:59 -8.9 °C -12.7 °C 34520.3 hPa NW 59.5 km/h 59.5 km/h 64 % 0 mm 111.0 W/m2 CLR
14:04 -8.9 °C -12.7 °C 34520.3 hPa NW 50.7 km/h 50.7 km/h 64 % 0 mm 146.0 W/m2 CLR
14:09 -9.1 °C -12.7 °C 34520.3 hPa NW 51.8 km/h 51.8 km/h 65 % 0 mm 220.0 W/m2 CLR
14:14 -9.1 °C -12.7 °C 34510.1 hPa NW 49.2 km/h 49.2 km/h 65 % 0 mm 149.0 W/m2 CLR
14:19 -9.2 °C -12.7 °C 34510.1 hPa NW 62.6 km/h 62.6 km/h 66 % 0 mm 165.0 W/m2 CLR
14:24 -9.3 °C -12.8 °C 34510.1 hPa NNW 38.8 km/h 38.8 km/h 66 % 0 mm 192.0 W/m2 CLR
14:29 -9.2 °C -12.6 °C 34510.1 hPa NNW 50.7 km/h 50.7 km/h 67 % 0 mm 234.0 W/m2 CLR
14:34 -9.2 °C -12.7 °C 34510.1 hPa NNW 53.6 km/h 53.6 km/h 66 % 0 mm 209.0 W/m2 CLR
14:39 -9.3 °C -12.8 °C 34496.6 hPa NW 36.2 km/h 37.5 km/h 66 % 0 mm 192.0 W/m2 CLR
14:44 -9.3 °C -12.7 °C 34496.6 hPa NNW 32.8 km/h 32.8 km/h 67 % 0 mm 202.0 W/m2 CLR
14:49 -9.3 °C -12.8 °C 34496.6 hPa NNW 44.7 km/h 44.7 km/h 66 % 0 mm 209.0 W/m2 CLR
14:55 -9.3 °C -12.8 °C 34496.6 hPa NNW 50.7 km/h 50.7 km/h 66 % 0 mm 200.0 W/m2 CLR
15:00 -9.3 °C -12.9 °C 34496.6 hPa NW 41.7 km/h 41.7 km/h 65 % 0 mm 197.0 W/m2 CLR
15:05 -9.3 °C -12.9 °C 34496.6 hPa NNW 38.8 km/h 38.8 km/h 66 % 0 mm 200.0 W/m2 CLR
15:10 -9.3 °C -12.9 °C 34486.4 hPa NNW 35.7 km/h 35.7 km/h 66 % 0 mm 185.0 W/m2 CLR
15:15 -9.3 °C -12.7 °C 34496.6 hPa NW 35.7 km/h 35.7 km/h 67 % 0 mm 179.0 W/m2 CLR
15:20 -9.4 °C -12.9 °C 34496.6 hPa NW 44.7 km/h 44.7 km/h 66 % 0 mm 186.0 W/m2 CLR
15:25 -9.5 °C -12.8 °C 34496.6 hPa NNW 38.8 km/h 38.8 km/h 67 % 0 mm 183.0 W/m2 CLR
15:30 -9.5 °C -12.8 °C 34496.6 hPa NW 38.8 km/h 38.8 km/h 67 % 0 mm 171.0 W/m2 CLR
15:35 -9.5 °C -12.9 °C 34486.4 hPa NW 28.5 km/h 28.5 km/h 67 % 0 mm 162.0 W/m2 CLR
15:40 -9.5 °C -12.8 °C 34486.4 hPa NW 20.9 km/h 20.9 km/h 67 % 0 mm 151.0 W/m2 CLR
15:45 -9.5 °C -13 °C 34496.6 hPa NW 47.6 km/h 47.6 km/h 66 % 0 mm 137.0 W/m2 CLR
15:50 -9.6 °C -12.9 °C 34496.6 hPa NW 38.8 km/h 38.8 km/h 67 % 0 mm 116.0 W/m2 CLR
15:55 -9.6 °C -12.8 °C 34496.6 hPa NW 32.8 km/h 32.8 km/h 68 % 0 mm 116.0 W/m2 CLR
16:00 -9.7 °C -12.9 °C 34496.6 hPa NW 41.7 km/h 41.7 km/h 68 % 0 mm 107.0 W/m2 CLR
16:05 -9.8 °C -13 °C 34496.6 hPa NW 44.7 km/h 44.7 km/h 68 % 0 mm 95.0 W/m2 CLR
16:10 -9.8 °C -12.9 °C 34496.6 hPa NW 44.7 km/h 44.7 km/h 69 % 0 mm 93.0 W/m2 CLR
16:15 -9.9 °C -13 °C 34496.6 hPa NW 29.8 km/h 29.8 km/h 69 % 0 mm 97.0 W/m2 CLR
16:20 -9.9 °C -12.9 °C 34496.6 hPa NW 32.8 km/h 32.8 km/h 70 % 0 mm 93.0 W/m2 CLR
16:25 -9.9 °C -12.9 °C 34486.4 hPa NW 29.8 km/h 29.8 km/h 70 % 0 mm 88.0 W/m2 CLR
16:30 -9.9 °C -12.9 °C 34496.6 hPa NW 38.8 km/h 38.8 km/h 70 % 0 mm 74.0 W/m2 CLR
16:35 -9.9 °C -12.9 °C 34486.4 hPa NW 32.8 km/h 32.8 km/h 70 % 0 mm 62.0 W/m2 FEW
16:40 -9.9 °C -12.9 °C 34486.4 hPa NW 23.8 km/h 23.8 km/h 70 % 0 mm 58.0 W/m2 FEW
16:45 -10.1 °C -13 °C 34486.4 hPa NW 29.8 km/h 29.8 km/h 70 % 0 mm 56.0 W/m2 SCT
16:50 -10.1 °C -13.1 °C 34486.4 hPa NW 29.8 km/h 29.8 km/h 70 % 0 mm 63.0 W/m2 SCT
16:55 -10.1 °C -13.1 °C 34486.4 hPa NW 29.8 km/h 29.8 km/h 70 % 0 mm 54.0 W/m2 SCT
17:00 -10.2 °C -13.2 °C 34496.6 hPa NW 29.8 km/h 29.8 km/h 70 % 0 mm 53.0 W/m2 SCT
17:05 -10.2 °C -13.1 °C 34486.4 hPa NW 26.9 km/h 26.9 km/h 71 % 0 mm 44.0 W/m2 SCT
17:10 -10.2 °C -13.1 °C 34496.6 hPa NW 35.7 km/h 35.7 km/h 71 % 0 mm 33.0 W/m2 BKN
17:15 -10.3 °C -13.2 °C 34496.6 hPa NW 35.7 km/h 35.7 km/h 71 % 0 mm 28.0 W/m2 BKN
17:20 -10.3 °C -13.2 °C 34496.6 hPa NW 38.8 km/h 38.8 km/h 71 % 0 mm 23.0 W/m2 BKN
17:25 -10.4 °C -13.3 °C 34510.1 hPa NW 35.7 km/h 35.7 km/h 71 % 0 mm 23.0 W/m2 BKN
17:30 -10.4 °C -13.2 °C 34496.6 hPa NW 28.5 km/h 28.5 km/h 72 % 0 mm 19.0 W/m2 BKN
17:35 -10.6 °C -13.1 °C 34510.1 hPa NW 33.6 km/h 33.6 km/h 74 % 0 mm 19.0 W/m2 BKN
17:39 -10.7 °C -13.1 °C 34510.1 hPa NW 41.4 km/h 41.4 km/h 75 % 0 mm 19.0 W/m2 BKN
17:44 -10.7 °C -13 °C 34520.3 hPa NW 29.8 km/h 29.8 km/h 76 % 0 mm 16.0 W/m2 BKN
17:49 -10.9 °C -13.1 °C 34520.3 hPa NW 44.7 km/h 44.7 km/h 77 % 7.62 mm 16.0 W/m2 RA
17:54 -10.9 °C -13.1 °C 34520.3 hPa NW 38.8 km/h 38.8 km/h 77 % 7.62 mm 16.0 W/m2 BKN
17:59 -10.9 °C -13 °C 34520.3 hPa NW 29.8 km/h 29.8 km/h 78 % 7.62 mm 16.0 W/m2 BKN
18:04 -11.1 °C -13 °C 34520.3 hPa NW 44.7 km/h 44.7 km/h 79 % 7.62 mm 12.0 W/m2 BKN
18:09 -11.1 °C -13.1 °C 34520.3 hPa NW 35.7 km/h 35.7 km/h 79 % 7.62 mm 0.0 W/m2 OVC
18:14 -11.2 °C -13 °C 34533.8 hPa NW 32.8 km/h 32.8 km/h 80 % 7.62 mm 0.0 W/m2 OVC
18:19 -11.3 °C -13 °C 34533.8 hPa NW 26.9 km/h 26.9 km/h 81 % 7.62 mm 0.0 W/m2 OVC
18:24 -11.4 °C -12.9 °C 34544 hPa WNW 20.9 km/h 20.9 km/h 83 % 12.7 mm 0.0 W/m2 RA
18:29 -11.5 °C -12.9 °C 34544 hPa NW 50.7 km/h 50.7 km/h 84 % 20.32 mm 0.0 W/m2 RA
18:34 -11.6 °C -12.9 °C 34544 hPa NW 38.8 km/h 38.8 km/h 86 % 33.02 mm 0.0 W/m2 RA
18:39 -11.7 °C -13 °C 34544 hPa WNW 44.7 km/h 44.7 km/h 86 % 38.1 mm 0.0 W/m2 RA
18:44 -11.8 °C -12.9 °C 34544 hPa WNW 29.8 km/h 29.8 km/h 87 % 38.1 mm 0.0 W/m2 RA
18:49 -11.8 °C -13 °C 34544 hPa WNW 29.8 km/h 29.8 km/h 87 % 38.1 mm 0.0 W/m2 CLR
18:54 -11.9 °C -13 °C 34533.8 hPa West 31.1 km/h 31.1 km/h 87 % 38.1 mm 0.0 W/m2 CLR
18:59 -11.9 °C -13.1 °C 34533.8 hPa West 36.2 km/h 36.2 km/h 86 % 38.1 mm 0.0 W/m2 CLR
19:04 -11.9 °C -13.1 °C 34544 hPa West 32.8 km/h 32.8 km/h 86 % 38.1 mm 0.0 W/m2 RA
19:09 -12 °C -13.2 °C 34544 hPa West 38.8 km/h 38.8 km/h 86 % 38.1 mm 0.0 W/m2
19:14 -12.1 °C -13.2 °C 34544 hPa West 41.7 km/h 41.7 km/h 87 % 50.8 mm 0.0 W/m2 RA
19:19 -12.1 °C -13.2 °C 34544 hPa West 29.8 km/h 29.8 km/h 87 % 50.8 mm 0.0 W/m2 RA
19:24 -12.1 °C -13.3 °C 34544 hPa West 32.8 km/h 32.8 km/h 87 % 45.72 mm 0.0 W/m2
19:29 -12.2 °C -13.2 °C 34544 hPa West 28.5 km/h 28.5 km/h 88 % 38.1 mm 0.0 W/m2 CLR
19:34 -12.2 °C -13.2 °C 34544 hPa WSW 29.8 km/h 29.8 km/h 88 % 33.02 mm 0.0 W/m2 CLR
19:39 -12.2 °C -13.2 °C 34544 hPa WSW 26.9 km/h 26.9 km/h 88 % 25.4 mm 0.0 W/m2 CLR
19:44 -12.2 °C -13.2 °C 34544 hPa West 23.8 km/h 23.8 km/h 88 % 20.32 mm 0.0 W/m2 CLR
19:49 -12.2 °C -13.3 °C 34544 hPa WSW 23.8 km/h 23.8 km/h 88 % 20.32 mm 0.0 W/m2 CLR
19:54 -12.2 °C -13.3 °C 34544 hPa WSW 26.9 km/h 26.9 km/h 88 % 20.32 mm 0.0 W/m2 CLR
19:59 -12.3 °C -13.3 °C 34544 hPa West 29.8 km/h 29.8 km/h 88 % 20.32 mm 0.0 W/m2 CLR
20:04 -12.2 °C -13.3 °C 34544 hPa West 29.8 km/h 29.8 km/h 88 % 12.7 mm 0.0 W/m2 CLR
20:09 -12.2 °C -13.3 °C 34544 hPa West 29.8 km/h 29.8 km/h 88 % 12.7 mm 0.0 W/m2 CLR
20:14 -12.2 °C -13.3 °C 34544 hPa West 29.8 km/h 29.8 km/h 87 % 7.62 mm 0.0 W/m2 CLR
20:19 -12.2 °C -13.3 °C 34544 hPa West 35.7 km/h 35.7 km/h 87 % 0 mm 0.0 W/m2 CLR
20:24 -12.1 °C -13.4 °C 34533.8 hPa West 38.8 km/h 38.8 km/h 86 % 0 mm 0.0 W/m2 CLR
20:29 -12.1 °C -13.3 °C 34533.8 hPa West 41.7 km/h 41.7 km/h 86 % 0 mm 0.0 W/m2 CLR
20:34 -12.1 °C -13.2 °C 34520.3 hPa West 41.7 km/h 41.7 km/h 87 % 0 mm 0.0 W/m2 CLR
20:39 -12.1 °C -13.3 °C 34520.3 hPa West 50.7 km/h 50.7 km/h 86 % 0 mm 0.0 W/m2 CLR
20:44 -12.1 °C -13.2 °C 34520.3 hPa WNW 44.7 km/h 44.7 km/h 87 % 0 mm 0.0 W/m2 CLR
20:49 -12.1 °C -13.3 °C 34520.3 hPa WNW 35.7 km/h 35.7 km/h 87 % 0 mm 0.0 W/m2 CLR
20:54 -12.2 °C -13.3 °C 34520.3 hPa WNW 49.2 km/h 49.2 km/h 87 % 0 mm 0.0 W/m2 CLR
20:59 -12.1 °C -13.4 °C 34510.1 hPa WNW 33.6 km/h 33.6 km/h 86 % 0 mm 0.0 W/m2 CLR
21:04 -12.2 °C -13.4 °C 34520.3 hPa WNW 38.8 km/h 38.8 km/h 86 % 0 mm 0.0 W/m2 CLR
21:05 -12.1 °C -13.4 °C 34520.3 hPa WNW 50.7 km/h 50.7 km/h 86 % 0 mm 0.0 W/m2 CLR
21:10 -12.1 °C -13.4 °C 34520.3 hPa WNW 47.6 km/h 47.6 km/h 86 % 0 mm 0.0 W/m2 CLR
21:15 -12.2 °C -13.4 °C 34520.3 hPa WNW 65.5 km/h 65.5 km/h 86 % 0 mm 0.0 W/m2 CLR
21:20 -12.2 °C -13.6 °C 34520.3 hPa WNW 38.8 km/h 38.8 km/h 85 % 0 mm 0.0 W/m2 CLR
21:25 -12.3 °C -13.7 °C 34520.3 hPa WNW 49.2 km/h 49.2 km/h 84 % 0 mm 0.0 W/m2 CLR
21:30 -12.3 °C -13.7 °C 34520.3 hPa WNW 50.7 km/h 50.7 km/h 84 % 0 mm 0.0 W/m2 CLR
21:35 -12.3 °C -13.8 °C 34520.3 hPa WNW 35.7 km/h 35.7 km/h 83 % 0 mm 0.0 W/m2 CLR
21:40 -12.4 °C -13.9 °C 34520.3 hPa WNW 35.7 km/h 35.7 km/h 83 % 0 mm 0.0 W/m2 CLR
21:45 -12.4 °C -13.9 °C 34520.3 hPa WNW 38.8 km/h 38.8 km/h 83 % 0 mm 0.0 W/m2 CLR
21:50 -12.4 °C -14.1 °C 34533.8 hPa NW 53.6 km/h 53.6 km/h 82 % 0 mm 0.0 W/m2 CLR
21:55 -12.4 °C -14.1 °C 34520.3 hPa NW 44.7 km/h 44.7 km/h 82 % 0 mm 0.0 W/m2 CLR
22:01 -12.5 °C -14.2 °C 34533.8 hPa WNW 54.4 km/h 54.4 km/h 81 % 0 mm 0.0 W/m2 CLR
22:06 -12.6 °C -14.3 °C 34520.3 hPa NW 53.6 km/h 53.6 km/h 81 % 0 mm 0.0 W/m2 CLR
22:11 -12.5 °C -14.2 °C 34533.8 hPa NW 59.5 km/h 59.5 km/h 81 % 0 mm 0.0 W/m2 CLR
22:16 -12.6 °C -14.3 °C 34533.8 hPa NW 50.7 km/h 50.7 km/h 81 % 0 mm 0.0 W/m2 CLR
22:21 -12.6 °C -14.3 °C 34533.8 hPa NW 50.7 km/h 50.7 km/h 81 % 0 mm 0.0 W/m2 CLR
22:26 -12.6 °C -14.4 °C 34533.8 hPa WNW 53.6 km/h 53.6 km/h 80 % 0 mm 0.0 W/m2 CLR
22:31 -12.6 °C -14.3 °C 34544 hPa WNW 44.7 km/h 44.7 km/h 80 % 0 mm 0.0 W/m2 CLR
22:36 -12.6 °C -14.3 °C 34533.8 hPa NW 50.7 km/h 50.7 km/h 80 % 0 mm 0.0 W/m2 CLR
22:41 -12.6 °C -14.3 °C 34544 hPa NW 68.6 km/h 68.6 km/h 80 % 0 mm 0.0 W/m2 CLR
22:46 -12.6 °C -14.3 °C 34544 hPa WNW 50.7 km/h 50.7 km/h 81 % 0 mm 0.0 W/m2 CLR
22:51 -12.7 °C -14.3 °C 34544 hPa WNW 53.6 km/h 53.6 km/h 82 % 0 mm 0.0 W/m2 CLR
22:56 -12.7 °C -14.3 °C 34544 hPa WNW 44.7 km/h 44.7 km/h 82 % 0 mm 0.0 W/m2 CLR
23:01 -12.8 °C -14.4 °C 34544 hPa WNW 50.7 km/h 50.7 km/h 82 % 0 mm 0.0 W/m2 CLR
23:06 -12.7 °C -14.5 °C 34544 hPa WNW 59.5 km/h 59.5 km/h 81 % 0 mm 0.0 W/m2 CLR
23:11 -12.8 °C -14.4 °C 34554.1 hPa WNW 50.7 km/h 50.7 km/h 82 % 0 mm 0.0 W/m2 CLR
23:16 -12.9 °C -14.4 °C 34567.7 hPa WNW 53.6 km/h 53.6 km/h 83 % 0 mm 0.0 W/m2 CLR
23:21 -12.9 °C -14.4 °C 34554.1 hPa WNW 50.7 km/h 50.7 km/h 83 % 0 mm 0.0 W/m2 CLR
23:26 -12.9 °C -14.4 °C 34554.1 hPa WNW 50.7 km/h 50.7 km/h 83 % 0 mm 0.0 W/m2 CLR
23:31 -12.9 °C -14.4 °C 34554.1 hPa WNW 59.5 km/h 59.5 km/h 83 % 0 mm 0.0 W/m2 CLR
23:36 -13 °C -14.4 °C 34554.1 hPa WNW 53.6 km/h 53.6 km/h 84 % 0 mm 0.0 W/m2 CLR
23:41 -13 °C -14.6 °C 34554.1 hPa WNW 50.7 km/h 50.7 km/h 83 % 0 mm 0.0 W/m2 CLR
23:46 -13.1 °C -14.6 °C 34554.1 hPa WNW 83.4 km/h 83.4 km/h 83 % 0 mm 0.0 W/m2 CLR
23:51 -13.1 °C -14.7 °C 34554.1 hPa WNW 68.6 km/h 68.6 km/h 82 % 0 mm 0.0 W/m2 CLR
23:56 -13.2 °C -14.8 °C 34554.1 hPa NW 47.6 km/h 47.6 km/h 82 % 0 mm 0.0 W/m2 CLR
Lo Temps de Massalio
Compliments of Weather Underground - 1.25 mb